createdAt,value
2017-12-19T00:02:23.976Z,21.83
2017-12-19T00:04:51.517Z,20.80
2017-12-19T00:07:19.848Z,22.03
2017-12-19T00:09:47.404Z,22.57
2017-12-19T00:12:15.744Z,20.63
2017-12-19T00:14:43.310Z,22.83
2017-12-19T00:17:10.920Z,22.97
2017-12-19T00:19:38.484Z,22.20
2017-12-19T00:22:06.033Z,19.53
2017-12-19T00:24:33.597Z,19.93
2017-12-19T00:27:01.923Z,22.40
2017-12-19T00:29:30.269Z,19.90
2017-12-19T00:31:57.813Z,20.50
2017-12-19T00:34:25.432Z,20.10
2017-12-19T00:36:53.008Z,19.70
2017-12-19T00:39:20.580Z,21.47
2017-12-19T00:41:48.137Z,21.93
2017-12-19T00:44:16.466Z,21.70
2017-12-19T00:46:44.780Z,21.10
2017-12-19T00:49:12.354Z,22.80
2017-12-19T00:51:40.668Z,21.70
2017-12-19T00:54:08.251Z,21.67
2017-12-19T00:56:35.814Z,23.20
2017-12-19T00:59:04.134Z,22.10
2017-12-19T01:01:31.714Z,21.90
2017-12-19T01:03:59.262Z,21.07
2017-12-19T01:06:26.865Z,21.40
2017-12-19T01:08:54.408Z,19.13
2017-12-19T01:11:22.014Z,20.27
2017-12-19T01:13:49.566Z,20.67
2017-12-19T01:16:17.134Z,21.53
2017-12-19T01:18:44.683Z,21.30
2017-12-19T01:21:13.017Z,20.57
2017-12-19T01:23:40.574Z,21.43
2017-12-19T01:26:08.904Z,20.73
2017-12-19T01:28:36.450Z,23.53
2017-12-19T01:31:04.764Z,22.80
2017-12-19T01:33:33.113Z,21.00
2017-12-19T01:36:00.656Z,22.03
2017-12-19T01:38:28.985Z,22.90
2017-12-19T01:40:56.559Z,24.77
2017-12-19T01:43:24.124Z,21.07
2017-12-19T01:45:52.437Z,22.00
2017-12-19T01:48:20.009Z,22.07
2017-12-19T01:50:48.360Z,22.30
2017-12-19T01:53:16.699Z,22.70
2017-12-19T01:55:44.241Z,22.97
2017-12-19T01:58:11.809Z,21.00
2017-12-19T02:00:39.353Z,22.87
2017-12-19T02:03:06.927Z,21.60
2017-12-19T02:05:34.485Z,22.10
2017-12-19T02:08:02.049Z,22.90
2017-12-19T02:10:29.592Z,22.93
2017-12-19T02:12:57.968Z,20.73
2017-12-19T02:15:25.516Z,24.30
2017-12-19T02:17:53.073Z,23.50
2017-12-19T02:20:20.645Z,22.57
2017-12-19T02:22:48.954Z,23.93
2017-12-19T02:25:17.295Z,23.27
2017-12-19T02:27:44.853Z,23.10
2017-12-19T02:30:12.418Z,24.47
2017-12-19T02:32:40.733Z,24.27
2017-12-19T02:35:08.300Z,24.13
2017-12-19T02:37:36.613Z,23.93
2017-12-19T02:40:04.945Z,25.63
2017-12-19T02:42:44.210Z,23.20
2017-12-19T02:45:11.774Z,24.87
2017-12-19T02:47:39.322Z,24.37
2017-12-19T02:50:06.912Z,24.73
2017-12-19T02:52:34.447Z,23.73
2017-12-19T02:55:01.990Z,25.67
2017-12-19T02:57:30.319Z,22.73
2017-12-19T02:59:57.864Z,24.37
2017-12-19T03:02:25.440Z,22.63
2017-12-19T03:04:52.981Z,22.83
2017-12-19T03:07:20.548Z,24.70
2017-12-19T03:09:48.103Z,24.03
2017-12-19T03:12:15.664Z,25.00
2017-12-19T03:14:44.009Z,23.47
2017-12-19T03:17:11.582Z,24.90
2017-12-19T03:19:39.897Z,26.77
2017-12-19T03:22:07.457Z,25.00
2017-12-19T03:24:34.998Z,26.07
2017-12-19T03:27:02.559Z,24.43
2017-12-19T03:29:30.148Z,24.90
2017-12-19T03:31:57.713Z,27.60
2017-12-19T03:34:26.035Z,26.63
2017-12-19T03:36:53.572Z,27.60
2017-12-19T03:39:21.131Z,25.63
2017-12-19T03:41:48.700Z,26.87
2017-12-19T03:44:16.269Z,25.77
2017-12-19T03:46:43.815Z,26.63
2017-12-19T03:49:11.394Z,25.33
2017-12-19T03:51:38.940Z,26.37
2017-12-19T03:54:06.502Z,27.20
2017-12-19T03:56:34.044Z,27.07
2017-12-19T03:59:01.613Z,28.27
2017-12-19T04:01:29.160Z,27.53
2017-12-19T04:03:56.724Z,27.97
2017-12-19T04:06:24.270Z,29.30
2017-12-19T04:08:51.856Z,29.57
2017-12-19T04:11:19.414Z,28.83
2017-12-19T04:13:46.953Z,30.70
2017-12-19T04:16:15.284Z,30.53
2017-12-19T04:18:42.829Z,30.63
2017-12-19T04:21:11.161Z,31.50
2017-12-19T04:23:38.704Z,31.23
2017-12-19T04:26:06.264Z,33.57
2017-12-19T04:28:33.815Z,29.97
2017-12-19T04:31:01.388Z,32.33
2017-12-19T04:33:28.939Z,34.23
2017-12-19T04:35:56.525Z,31.70
2017-12-19T04:38:24.244Z,32.97
2017-12-19T04:40:51.876Z,32.77
2017-12-19T04:43:19.432Z,33.17
2017-12-19T04:45:47.023Z,33.20
2017-12-19T04:48:14.569Z,31.37
2017-12-19T04:50:42.882Z,31.37
2017-12-19T04:53:10.464Z,34.47
2017-12-19T04:55:38.044Z,32.83
2017-12-19T04:58:05.612Z,33.70
2017-12-19T05:00:33.911Z,34.23
2017-12-19T05:03:01.475Z,34.17
2017-12-19T05:05:29.022Z,30.87
2017-12-19T05:07:56.741Z,32.97
2017-12-19T05:10:24.279Z,32.37
2017-12-19T05:12:51.876Z,34.13
2017-12-19T05:15:19.432Z,33.43
2017-12-19T05:17:47.780Z,36.60
2017-12-19T05:20:15.327Z,35.47
2017-12-19T05:22:42.880Z,32.93
2017-12-19T05:25:10.456Z,37.97
2017-12-19T05:27:38.001Z,37.23
2017-12-19T05:30:05.552Z,35.70
2017-12-19T05:32:33.851Z,33.30
2017-12-19T05:35:02.177Z,34.07
2017-12-19T05:37:29.728Z,33.67
2017-12-19T05:39:58.060Z,33.87
2017-12-19T05:42:25.599Z,33.00
2017-12-19T05:44:53.160Z,36.93
2017-12-19T05:47:20.696Z,34.97
2017-12-19T05:49:49.020Z,36.00
2017-12-19T05:52:16.556Z,34.33
2017-12-19T05:54:44.140Z,36.07
2017-12-19T05:57:11.696Z,33.90
2017-12-19T05:59:39.276Z,35.93
2017-12-19T06:02:06.816Z,36.40
2017-12-19T06:04:35.121Z,33.90
2017-12-19T06:07:03.440Z,34.73
2017-12-19T06:09:30.980Z,35.20
2017-12-19T06:11:58.548Z,38.60
2017-12-19T06:14:26.091Z,36.80
2017-12-19T06:16:53.651Z,37.70
2017-12-19T06:19:21.970Z,34.97
2017-12-19T06:21:49.544Z,36.60
2017-12-19T06:24:17.844Z,37.67
2017-12-19T06:26:46.168Z,37.33
2017-12-19T06:29:13.709Z,37.77
2017-12-19T06:31:41.274Z,38.67
2017-12-19T06:34:08.817Z,38.47
2017-12-19T06:36:36.383Z,40.27
2017-12-19T06:39:03.949Z,41.00
2017-12-19T06:41:32.251Z,39.97
2017-12-19T06:44:00.576Z,43.43
2017-12-19T06:46:28.115Z,39.30
2017-12-19T06:48:55.672Z,41.30
2017-12-19T06:51:23.216Z,44.17
2017-12-19T06:53:50.793Z,41.07
2017-12-19T06:56:19.120Z,40.20
2017-12-19T06:58:46.697Z,39.23
2017-12-19T07:01:14.241Z,41.17
2017-12-19T07:03:41.815Z,39.87
2017-12-19T07:06:09.368Z,43.73
2017-12-19T07:08:36.932Z,43.63
2017-12-19T07:11:06.877Z,45.43
2017-12-19T07:13:35.280Z,43.10
2017-12-19T07:16:02.820Z,43.27
2017-12-19T07:18:30.367Z,43.07
2017-12-19T07:20:57.936Z,42.27
2017-12-19T07:23:25.484Z,43.70
2017-12-19T07:25:53.047Z,45.37
2017-12-19T07:28:20.600Z,41.70
2017-12-19T07:30:48.175Z,44.23
2017-12-19T07:33:15.717Z,41.50
2017-12-19T07:35:43.282Z,42.40
2017-12-19T07:38:10.828Z,40.87
2017-12-19T07:40:38.416Z,43.00
2017-12-19T07:43:05.990Z,43.60
2017-12-19T07:45:33.566Z,43.90
2017-12-19T07:48:01.111Z,42.73
2017-12-19T07:50:28.676Z,46.10
2017-12-19T07:52:56.224Z,45.47
2017-12-19T07:55:23.816Z,43.77
2017-12-19T07:57:51.365Z,41.40
2017-12-19T08:00:19.688Z,45.30
2017-12-19T08:02:47.262Z,47.73
2017-12-19T08:05:15.570Z,46.97
2017-12-19T08:07:43.140Z,45.70
2017-12-19T08:10:11.448Z,48.27
2017-12-19T08:12:39.052Z,48.80
2017-12-19T08:15:06.609Z,44.20
2017-12-19T08:17:34.961Z,47.67
2017-12-19T08:20:02.514Z,43.50
2017-12-19T08:22:30.083Z,46.90
2017-12-19T08:24:58.395Z,47.57
2017-12-19T08:27:25.956Z,43.77
2017-12-19T08:29:53.499Z,43.73
2017-12-19T08:32:21.063Z,41.97
2017-12-19T08:34:48.606Z,45.60
2017-12-19T08:37:16.185Z,47.20
2017-12-19T08:39:43.729Z,47.90
2017-12-19T08:42:11.292Z,45.80
2017-12-19T08:44:38.841Z,48.87
2017-12-19T08:47:06.430Z,48.07
2017-12-19T08:49:34.805Z,45.83
2017-12-19T08:52:02.315Z,48.30
2017-12-19T08:54:30.007Z,45.17
2017-12-19T08:56:58.324Z,48.00
2017-12-19T08:59:26.648Z,46.73
2017-12-19T09:01:54.200Z,46.53
2017-12-19T09:04:22.535Z,48.90
2017-12-19T09:06:50.077Z,49.40
2017-12-19T09:09:18.410Z,48.67
2017-12-19T09:11:45.960Z,46.80
2017-12-19T09:14:13.521Z,49.13
2017-12-19T09:16:41.070Z,48.63
2017-12-19T09:19:08.633Z,48.50
2017-12-19T09:21:36.207Z,46.83
2017-12-19T09:24:03.747Z,44.90
2017-12-19T09:26:31.312Z,46.80
2017-12-19T09:28:59.634Z,46.30
2017-12-19T09:31:27.208Z,44.77
2017-12-19T09:33:54.749Z,46.60
2017-12-19T09:36:23.089Z,44.67
2017-12-19T09:38:50.636Z,45.23
2017-12-19T09:41:18.984Z,45.27
2017-12-19T09:43:46.524Z,43.83
2017-12-19T09:46:14.079Z,46.83
2017-12-19T09:48:41.628Z,46.00
2017-12-19T09:51:09.192Z,45.77
2017-12-19T09:53:36.773Z,44.50
2017-12-19T09:56:04.340Z,42.90
2017-12-19T09:58:31.880Z,44.13
2017-12-19T10:00:59.484Z,45.77
2017-12-19T10:03:27.029Z,43.37
2017-12-19T10:05:54.572Z,45.70
2017-12-19T10:08:22.896Z,41.20
2017-12-19T10:10:50.437Z,41.93
2017-12-19T10:13:18.000Z,45.23
2017-12-19T10:15:45.549Z,43.20
2017-12-19T10:18:13.113Z,43.37
2017-12-19T10:20:41.420Z,42.50
2017-12-19T10:23:08.991Z,41.37
2017-12-19T10:25:37.297Z,38.77
2017-12-19T10:28:05.623Z,38.23
2017-12-19T10:30:33.224Z,36.53
2017-12-19T10:33:01.546Z,38.60
2017-12-19T10:35:29.092Z,36.30
2017-12-19T10:37:56.661Z,34.80
2017-12-19T10:40:24.964Z,33.63
2017-12-19T10:42:53.281Z,35.73
2017-12-19T10:45:20.898Z,32.67
2017-12-19T10:47:48.416Z,32.83
2017-12-19T10:50:15.975Z,32.53
2017-12-19T10:52:43.518Z,34.13
2017-12-19T10:55:11.092Z,32.40
2017-12-19T10:57:38.643Z,32.43
2017-12-19T11:00:06.204Z,34.00
2017-12-19T11:02:33.753Z,32.90
2017-12-19T11:05:01.318Z,31.53
2017-12-19T11:07:29.614Z,32.53
2017-12-19T11:09:57.941Z,35.27
2017-12-19T11:12:25.480Z,33.27
2017-12-19T11:14:53.041Z,31.90
2017-12-19T11:17:20.582Z,33.07
2017-12-19T11:19:48.136Z,33.70
2017-12-19T11:22:15.705Z,31.20
2017-12-19T11:24:43.269Z,32.60
2017-12-19T11:27:10.847Z,32.10
2017-12-19T11:29:38.393Z,33.33
2017-12-19T11:32:06.764Z,34.40
2017-12-19T11:34:34.372Z,31.20
2017-12-19T11:37:02.709Z,34.03
2017-12-19T11:39:30.303Z,36.70
2017-12-19T11:41:57.912Z,32.40
2017-12-19T11:44:25.748Z,32.90
2017-12-19T11:46:53.732Z,34.80
2017-12-19T11:49:21.364Z,32.10
2017-12-19T11:51:48.939Z,32.97
2017-12-19T11:54:17.304Z,31.30
2017-12-19T11:56:44.868Z,31.30
2017-12-19T11:59:12.441Z,33.70
2017-12-19T12:01:39.988Z,31.23
2017-12-19T12:04:07.575Z,33.60
2017-12-19T12:06:35.129Z,33.83
2017-12-19T12:09:03.464Z,35.87
2017-12-19T12:11:31.024Z,31.30
2017-12-19T12:13:58.589Z,31.83
2017-12-19T12:16:26.149Z,31.27
2017-12-19T12:18:53.704Z,34.57
2017-12-19T12:21:21.262Z,32.57
2017-12-19T12:23:48.874Z,32.90
2017-12-19T12:26:16.429Z,30.60
2017-12-19T12:28:43.993Z,32.30
2017-12-19T12:31:11.535Z,33.83
2017-12-19T12:33:39.105Z,31.37
2017-12-19T12:36:06.665Z,32.10
2017-12-19T12:38:34.210Z,29.33
2017-12-19T12:41:01.837Z,30.30
2017-12-19T12:43:29.381Z,30.23
2017-12-19T12:45:56.985Z,31.27
2017-12-19T12:48:25.348Z,28.80
2017-12-19T12:50:52.917Z,29.60
2017-12-19T12:53:20.790Z,28.57
2017-12-19T12:55:48.377Z,28.67
2017-12-19T12:58:15.981Z,28.57
2017-12-19T13:00:44.315Z,30.20
2017-12-19T13:03:11.858Z,30.70
2017-12-19T13:05:39.457Z,28.30
2017-12-19T13:08:07.052Z,28.13
2017-12-19T13:10:34.633Z,27.33
2017-12-19T13:13:02.192Z,27.60
2017-12-19T13:15:29.760Z,28.70
2017-12-19T13:17:57.336Z,28.90
2017-12-19T13:20:25.708Z,27.67
2017-12-19T13:22:54.710Z,28.37
2017-12-19T13:25:22.297Z,29.07
2017-12-19T13:27:51.661Z,27.80
2017-12-19T13:30:19.365Z,28.90
2017-12-19T13:32:46.948Z,31.67
2017-12-19T13:35:14.516Z,28.33
2017-12-19T13:37:42.875Z,30.70
2017-12-19T13:40:10.433Z,30.70
2017-12-19T13:42:38.000Z,30.27
2017-12-19T13:45:06.360Z,32.70
2017-12-19T13:47:33.973Z,29.40
2017-12-19T13:50:02.943Z,32.17
2017-12-19T13:52:30.602Z,32.23
2017-12-19T13:54:59.108Z,30.07
2017-12-19T13:57:27.751Z,31.77
2017-12-19T13:59:56.376Z,32.77
2017-12-19T14:02:23.971Z,32.90
2017-12-19T14:04:51.625Z,33.40
2017-12-19T14:07:19.306Z,34.80
2017-12-19T14:09:46.888Z,34.03
2017-12-19T14:12:14.438Z,31.67
2017-12-19T14:14:42.778Z,36.23
2017-12-19T14:17:10.358Z,32.20
2017-12-19T14:19:37.981Z,32.70
2017-12-19T14:22:05.529Z,36.97
2017-12-19T14:24:33.106Z,32.90
2017-12-19T14:27:00.690Z,28.60
2017-12-19T14:29:28.304Z,33.97
2017-12-19T14:31:55.853Z,33.90
2017-12-19T14:34:23.451Z,34.30
2017-12-19T14:36:51.014Z,33.50
2017-12-19T14:39:19.400Z,31.20
2017-12-19T14:41:47.724Z,33.27
2017-12-19T14:44:15.290Z,34.77
2017-12-19T14:46:42.855Z,32.50
2017-12-19T14:49:10.394Z,33.30
2017-12-19T14:51:37.974Z,31.60
2017-12-19T14:54:05.523Z,31.40
2017-12-19T14:56:33.869Z,33.03
2017-12-19T14:59:02.181Z,32.87
2017-12-19T15:01:30.323Z,34.63
2017-12-19T15:03:58.668Z,34.53
2017-12-19T15:06:26.240Z,29.97
2017-12-19T15:08:53.817Z,30.33
2017-12-19T15:11:21.438Z,29.40
2017-12-19T15:13:48.988Z,26.43
2017-12-19T15:16:16.576Z,28.73
2017-12-19T15:18:44.133Z,28.97
2017-12-19T15:21:12.449Z,29.40
2017-12-19T15:23:40.014Z,27.90
2017-12-19T15:26:08.341Z,28.90
2017-12-19T15:28:35.905Z,27.30
2017-12-19T15:31:04.222Z,28.70
2017-12-19T15:33:31.796Z,26.63
2017-12-19T15:36:00.136Z,26.53
2017-12-19T15:38:28.655Z,26.53
2017-12-19T15:40:56.600Z,25.40
2017-12-19T15:43:24.193Z,25.27
2017-12-19T15:45:51.766Z,27.03
2017-12-19T15:48:19.361Z,27.77
2017-12-19T15:50:46.909Z,23.90
2017-12-19T15:53:14.508Z,25.50
2017-12-19T15:55:42.066Z,22.50
2017-12-19T15:58:09.631Z,26.10
2017-12-19T16:00:38.216Z,26.30
2017-12-19T16:03:05.763Z,23.63
2017-12-19T16:05:34.096Z,26.20
2017-12-19T16:08:01.677Z,23.50
2017-12-19T16:10:29.285Z,28.23
2017-12-19T16:12:57.110Z,29.23
2017-12-19T16:15:25.816Z,24.60
2017-12-19T16:17:53.789Z,24.10
2017-12-19T16:20:21.460Z,21.17
2017-12-19T16:22:49.010Z,23.23
2017-12-19T16:25:16.586Z,25.23
2017-12-19T16:27:44.149Z,25.73
2017-12-19T16:30:11.738Z,22.80
2017-12-19T16:32:39.275Z,21.57
2017-12-19T16:35:06.816Z,19.77
2017-12-19T16:37:34.405Z,22.93
2017-12-19T16:40:02.720Z,22.20
2017-12-19T16:42:31.045Z,20.90
2017-12-19T16:44:58.591Z,23.30
2017-12-19T16:47:26.156Z,22.60
2017-12-19T16:49:53.708Z,21.07
2017-12-19T16:52:21.348Z,18.13
2017-12-19T16:54:50.503Z,19.37
2017-12-19T16:57:18.088Z,17.80
2017-12-19T16:59:45.622Z,17.53
2017-12-19T17:02:13.184Z,18.43
2017-12-19T17:04:40.730Z,19.87
2017-12-19T17:07:08.284Z,16.43
2017-12-19T17:09:35.824Z,19.27
2017-12-19T17:12:03.368Z,16.70
2017-12-19T17:14:31.702Z,17.80
2017-12-19T17:16:59.244Z,16.30
2017-12-19T17:19:27.590Z,17.37
2017-12-19T17:21:55.182Z,16.50
2017-12-19T17:24:22.822Z,18.37
2017-12-19T17:26:50.404Z,19.53
2017-12-19T17:29:18.741Z,22.10
2017-12-19T17:31:46.296Z,20.07
2017-12-19T17:34:14.748Z,18.37
2017-12-19T17:36:42.307Z,17.93
2017-12-19T17:39:09.895Z,18.57
2017-12-19T17:41:37.445Z,16.50
2017-12-19T17:44:05.820Z,20.77
2017-12-19T17:46:33.374Z,20.53
2017-12-19T17:49:00.979Z,22.70
2017-12-19T17:51:28.545Z,22.40
2017-12-19T17:53:56.075Z,23.17
2017-12-19T17:56:23.637Z,20.87
2017-12-19T17:58:51.208Z,20.70
2017-12-19T18:01:18.777Z,21.57
2017-12-19T18:03:46.326Z,22.50
2017-12-19T18:06:14.659Z,26.30
2017-12-19T18:08:42.263Z,27.33
2017-12-19T18:11:09.824Z,35.80
2017-12-19T18:13:37.369Z,35.97
2017-12-19T18:16:04.940Z,28.70
2017-12-19T18:18:32.481Z,30.90
2017-12-19T18:21:00.032Z,27.80
2017-12-19T18:23:28.407Z,27.50
2017-12-19T18:25:55.948Z,29.60
2017-12-19T18:28:23.527Z,21.90
2017-12-19T18:30:51.115Z,18.27
2017-12-19T18:33:18.688Z,18.83
2017-12-19T18:35:46.253Z,18.67
2017-12-19T18:38:14.585Z,18.40
2017-12-19T18:40:42.128Z,16.20
2017-12-19T18:43:09.688Z,17.93
2017-12-19T18:45:37.228Z,16.53
2017-12-19T18:48:04.793Z,15.50
2017-12-19T18:50:33.132Z,16.90
2017-12-19T18:53:00.680Z,17.13
2017-12-19T18:55:29.009Z,14.00
2017-12-19T18:57:56.604Z,16.60
2017-12-19T19:00:24.160Z,16.13
2017-12-19T19:02:52.460Z,16.43
2017-12-19T19:05:20.053Z,16.47
2017-12-19T19:07:47.600Z,15.60
2017-12-19T19:10:15.165Z,15.00
2017-12-19T19:12:42.791Z,15.57
2017-12-19T19:15:10.355Z,17.27
2017-12-19T19:17:37.903Z,17.83
2017-12-19T19:20:05.557Z,16.00
2017-12-19T19:22:33.104Z,15.53
2017-12-19T19:25:00.671Z,15.00
2017-12-19T19:27:29.049Z,15.70
2017-12-19T19:29:56.606Z,17.30
2017-12-19T19:32:24.939Z,15.80
2017-12-19T19:34:52.471Z,13.73
2017-12-19T19:37:20.796Z,16.43
2017-12-19T19:39:48.417Z,16.90
2017-12-19T19:42:16.705Z,16.80
2017-12-19T19:44:44.252Z,15.43
2017-12-19T19:47:12.621Z,15.00
2017-12-19T19:49:40.184Z,14.70
2017-12-19T19:52:07.744Z,13.43
2017-12-19T19:54:35.287Z,12.70
2017-12-19T19:57:02.850Z,10.97
2017-12-19T19:59:30.471Z,11.60
2017-12-19T20:01:58.014Z,14.73
2017-12-19T20:04:26.865Z,11.80
2017-12-19T20:06:54.449Z,14.70
2017-12-19T20:09:22.013Z,16.70
2017-12-19T20:11:51.290Z,14.40
2017-12-19T20:14:18.853Z,14.03
2017-12-19T20:16:47.184Z,15.03
2017-12-19T20:19:14.786Z,13.30
2017-12-19T20:21:42.340Z,17.27
2017-12-19T20:24:09.900Z,12.70
2017-12-19T20:26:37.436Z,13.20
2017-12-19T20:29:04.996Z,11.13
2017-12-19T20:31:32.537Z,12.97
2017-12-19T20:34:00.072Z,11.93
2017-12-19T20:36:27.632Z,11.53
2017-12-19T20:38:55.947Z,12.50
2017-12-19T20:41:23.584Z,9.70
2017-12-19T20:43:51.131Z,11.63
2017-12-19T20:46:18.724Z,10.43
2017-12-19T20:48:46.267Z,10.90
2017-12-19T20:51:14.592Z,12.53
2017-12-19T20:53:42.155Z,11.93
2017-12-19T20:56:10.480Z,12.40
2017-12-19T20:58:38.046Z,11.37
2017-12-19T21:01:06.537Z,10.50
2017-12-19T21:03:34.837Z,12.83
2017-12-19T21:06:03.171Z,12.53
2017-12-19T21:08:30.729Z,13.40
2017-12-19T21:10:59.053Z,11.77
2017-12-19T21:13:26.589Z,13.60
2017-12-19T21:15:54.183Z,18.77
2017-12-19T21:18:21.723Z,16.57
2017-12-19T21:20:49.277Z,17.60
2017-12-19T21:23:17.600Z,17.13
2017-12-19T21:25:45.136Z,15.13
2017-12-19T21:28:12.696Z,13.80
2017-12-19T21:30:40.243Z,16.53
2017-12-19T21:33:08.028Z,17.57
2017-12-19T21:35:35.872Z,15.27
2017-12-19T21:38:03.481Z,14.80
2017-12-19T21:40:31.055Z,15.13
2017-12-19T21:42:58.660Z,18.87
2017-12-19T21:45:26.976Z,18.80
2017-12-19T21:47:54.536Z,13.30
2017-12-19T21:50:22.081Z,13.97
2017-12-19T21:52:49.668Z,14.50
2017-12-19T21:55:17.201Z,11.47
2017-12-19T21:57:45.514Z,14.10
2017-12-19T22:00:13.077Z,15.70
2017-12-19T22:02:41.382Z,14.00
2017-12-19T22:05:09.716Z,11.77
2017-12-19T22:07:37.256Z,12.30
2017-12-19T22:10:05.596Z,12.40
2017-12-19T22:12:33.278Z,15.63
2017-12-19T22:15:00.897Z,19.30
2017-12-19T22:17:29.313Z,20.20
2017-12-19T22:19:56.875Z,21.30
2017-12-19T22:22:25.183Z,17.50
2017-12-19T22:24:52.769Z,20.77
2017-12-19T22:27:20.308Z,15.90
2017-12-19T22:29:48.653Z,14.97
2017-12-19T22:32:16.190Z,13.47
2017-12-19T22:34:44.492Z,14.00
2017-12-19T22:37:12.821Z,13.33
2017-12-19T22:39:40.367Z,13.90
2017-12-19T22:42:08.692Z,15.90
2017-12-19T22:44:36.239Z,17.07
2017-12-19T22:47:07.229Z,14.27
2017-12-19T22:49:35.752Z,16.60
2017-12-19T22:52:04.100Z,16.40
2017-12-19T22:54:31.659Z,11.97
2017-12-19T22:56:59.231Z,16.40
2017-12-19T22:59:26.776Z,13.30
2017-12-19T23:01:54.319Z,12.50
2017-12-19T23:04:21.876Z,10.30
2017-12-19T23:06:50.171Z,9.30
2017-12-19T23:09:18.500Z,9.80
2017-12-19T23:11:46.824Z,11.10
2017-12-19T23:14:14.389Z,8.93
2017-12-19T23:16:41.937Z,10.97
2017-12-19T23:19:10.278Z,10.17
2017-12-19T23:21:37.818Z,7.47
2017-12-19T23:24:06.156Z,9.27
2017-12-19T23:26:33.709Z,11.40
2017-12-19T23:29:01.249Z,11.87
2017-12-19T23:31:29.084Z,12.33
2017-12-19T23:33:56.624Z,14.67
2017-12-19T23:36:24.195Z,10.90
2017-12-19T23:38:51.741Z,14.67
2017-12-19T23:41:20.076Z,15.30
2017-12-19T23:43:47.621Z,15.20
2017-12-19T23:46:15.177Z,20.70
2017-12-19T23:48:42.716Z,15.87
2017-12-19T23:51:10.273Z,15.60
2017-12-19T23:53:37.820Z,15.60
2017-12-19T23:56:05.369Z,13.67
2017-12-19T23:58:32.936Z,15.83
